sensor_id;sensor_type;location;lat;lon;timestamp;pressure;altitude;pressure_sealevel;temperature;humidity
74794;BME280;63320;50.768;6.724;2023-07-16T00:00:29;99638.91;;;20.20;63.90
74794;BME280;63320;50.768;6.724;2023-07-16T00:02:56;99638.56;;;20.05;64.48
74794;BME280;63320;50.768;6.724;2023-07-16T00:05:21;99647.56;;;20.04;64.37
74794;BME280;63320;50.768;6.724;2023-07-16T00:07:47;99643.13;;;19.95;64.93
74794;BME280;63320;50.768;6.724;2023-07-16T00:10:12;99643.13;;;19.95;64.61
74794;BME280;63320;50.768;6.724;2023-07-16T00:12:38;99655.09;;;20.18;64.00
74794;BME280;63320;50.768;6.724;2023-07-16T00:15:04;99649.78;;;19.81;65.13
74794;BME280;63320;50.768;6.724;2023-07-16T00:17:29;99663.47;;;19.69;65.94
74794;BME280;63320;50.768;6.724;2023-07-16T00:19:56;99656.31;;;19.50;66.39
74794;BME280;63320;50.768;6.724;2023-07-16T00:22:21;99660.38;;;19.63;66.28
74794;BME280;63320;50.768;6.724;2023-07-16T00:24:47;99667.41;;;19.55;66.43
74794;BME280;63320;50.768;6.724;2023-07-16T00:27:12;99664.00;;;19.62;66.28
74794;BME280;63320;50.768;6.724;2023-07-16T00:29:37;99668.22;;;19.55;66.50
74794;BME280;63320;50.768;6.724;2023-07-16T00:32:03;99662.94;;;19.36;67.03
74794;BME280;63320;50.768;6.724;2023-07-16T00:34:28;99673.59;;;19.46;66.63
74794;BME280;63320;50.768;6.724;2023-07-16T00:36:55;99675.00;;;19.59;66.14
74794;BME280;63320;50.768;6.724;2023-07-16T00:39:20;99664.63;;;19.37;67.42
74794;BME280;63320;50.768;6.724;2023-07-16T00:41:46;99668.44;;;19.34;67.13
74794;BME280;63320;50.768;6.724;2023-07-16T00:44:11;99674.47;;;19.07;68.07
74794;BME280;63320;50.768;6.724;2023-07-16T00:46:37;99674.47;;;19.07;68.16
74794;BME280;63320;50.768;6.724;2023-07-16T00:49:03;99676.72;;;19.22;67.55
74794;BME280;63320;50.768;6.724;2023-07-16T00:51:28;99679.69;;;19.09;67.85
74794;BME280;63320;50.768;6.724;2023-07-16T00:53:55;99678.00;;;18.98;68.53
74794;BME280;63320;50.768;6.724;2023-07-16T00:56:21;99677.44;;;19.04;68.10
74794;BME280;63320;50.768;6.724;2023-07-16T00:58:47;99670.28;;;18.95;68.60
74794;BME280;63320;50.768;6.724;2023-07-16T01:01:12;99666.63;;;18.77;68.86
74794;BME280;63320;50.768;6.724;2023-07-16T01:03:38;99679.84;;;18.98;68.48
74794;BME280;63320;50.768;6.724;2023-07-16T01:06:10;99677.84;;;19.09;68.15
74794;BME280;63320;50.768;6.724;2023-07-16T01:08:41;99681.50;;;19.18;67.45
74794;BME280;63320;50.768;6.724;2023-07-16T01:11:08;99677.44;;;19.24;67.40
74794;BME280;63320;50.768;6.724;2023-07-16T01:13:35;99681.94;;;18.84;68.25
74794;BME280;63320;50.768;6.724;2023-07-16T01:16:00;99686.69;;;19.10;67.57
74794;BME280;63320;50.768;6.724;2023-07-16T01:18:26;99679.84;;;18.88;67.95
74794;BME280;63320;50.768;6.724;2023-07-16T01:20:51;99684.44;;;18.96;67.94
74794;BME280;63320;50.768;6.724;2023-07-16T01:23:47;99683.47;;;18.87;67.95
74794;BME280;63320;50.768;6.724;2023-07-16T01:26:30;99690.75;;;18.95;67.84
74794;BME280;63320;50.768;6.724;2023-07-16T01:29:21;99690.75;;;19.04;67.47
74794;BME280;63320;50.768;6.724;2023-07-16T01:31:53;99693.53;;;19.12;67.07
74794;BME280;63320;50.768;6.724;2023-07-16T01:34:20;99693.28;;;19.06;66.88
74794;BME280;63320;50.768;6.724;2023-07-16T01:36:46;99701.44;;;19.04;67.09
74794;BME280;63320;50.768;6.724;2023-07-16T01:39:13;99697.63;;;19.17;66.66
74794;BME280;63320;50.768;6.724;2023-07-16T01:41:39;99701.25;;;18.77;67.79
74794;BME280;63320;50.768;6.724;2023-07-16T01:44:04;99712.09;;;19.04;66.96
74794;BME280;63320;50.768;6.724;2023-07-16T01:46:31;99711.66;;;18.99;67.23
74794;BME280;63320;50.768;6.724;2023-07-16T01:48:56;99722.59;;;19.15;66.23
74794;BME280;63320;50.768;6.724;2023-07-16T01:51:22;99720.34;;;19.21;65.92
74794;BME280;63320;50.768;6.724;2023-07-16T01:53:47;99726.81;;;18.99;66.55
74794;BME280;63320;50.768;6.724;2023-07-16T01:56:13;99731.16;;;19.09;66.23
74794;BME280;63320;50.768;6.724;2023-07-16T01:58:38;99736.06;;;19.14;65.85
74794;BME280;63320;50.768;6.724;2023-07-16T02:01:03;99733.69;;;19.11;66.13
74794;BME280;63320;50.768;6.724;2023-07-16T02:03:30;99730.44;;;19.07;66.17
74794;BME280;63320;50.768;6.724;2023-07-16T02:05:55;99732.28;;;19.17;65.73
74794;BME280;63320;50.768;6.724;2023-07-16T02:08:21;99740.84;;;19.10;65.89
74794;BME280;63320;50.768;6.724;2023-07-16T02:10:47;99737.75;;;19.25;65.04
74794;BME280;63320;50.768;6.724;2023-07-16T02:13:12;99746.44;;;19.27;65.04
74794;BME280;63320;50.768;6.724;2023-07-16T02:15:38;99744.59;;;19.18;65.40
74794;BME280;63320;50.768;6.724;2023-07-16T02:18:04;99747.28;;;19.08;65.70
74794;BME280;63320;50.768;6.724;2023-07-16T02:20:30;99747.72;;;19.03;64.98
74794;BME280;63320;50.768;6.724;2023-07-16T02:22:56;99747.84;;;19.02;64.91
74794;BME280;63320;50.768;6.724;2023-07-16T02:25:21;99758.63;;;19.00;65.17
74794;BME280;63320;50.768;6.724;2023-07-16T02:27:46;99758.66;;;19.10;64.92
74794;BME280;63320;50.768;6.724;2023-07-16T02:30:13;99761.88;;;18.94;64.93
74794;BME280;63320;50.768;6.724;2023-07-16T02:32:39;99763.41;;;18.97;65.31
74794;BME280;63320;50.768;6.724;2023-07-16T02:35:05;99766.50;;;19.11;64.75
74794;BME280;63320;50.768;6.724;2023-07-16T02:37:32;99769.56;;;18.97;64.96
74794;BME280;63320;50.768;6.724;2023-07-16T02:39:58;99770.59;;;18.66;66.04
74794;BME280;63320;50.768;6.724;2023-07-16T02:42:24;99772.22;;;18.97;65.07
74794;BME280;63320;50.768;6.724;2023-07-16T02:44:49;99781.63;;;18.92;64.87
74794;BME280;63320;50.768;6.724;2023-07-16T02:47:15;99782.38;;;18.63;65.98
74794;BME280;63320;50.768;6.724;2023-07-16T02:49:40;99781.09;;;18.67;65.92
74794;BME280;63320;50.768;6.724;2023-07-16T02:52:06;99783.97;;;18.35;66.93
74794;BME280;63320;50.768;6.724;2023-07-16T02:54:35;99775.22;;;18.63;65.48
74794;BME280;63320;50.768;6.724;2023-07-16T02:57:00;99779.34;;;18.77;65.11
74794;BME280;63320;50.768;6.724;2023-07-16T02:59:26;99786.41;;;18.57;65.82
74794;BME280;63320;50.768;6.724;2023-07-16T03:01:51;99783.56;;;18.80;64.81
74794;BME280;63320;50.768;6.724;2023-07-16T03:04:17;99787.47;;;18.76;64.81
74794;BME280;63320;50.768;6.724;2023-07-16T03:06:42;99787.97;;;18.60;65.12
74794;BME280;63320;50.768;6.724;2023-07-16T03:09:07;99789.50;;;18.53;65.36
74794;BME280;63320;50.768;6.724;2023-07-16T03:11:34;99795.63;;;18.44;65.61
74794;BME280;63320;50.768;6.724;2023-07-16T03:13:59;99789.50;;;18.53;65.05
74794;BME280;63320;50.768;6.724;2023-07-16T03:16:25;99798.69;;;18.39;65.32
74794;BME280;63320;50.768;6.724;2023-07-16T03:18:50;99800.69;;;18.56;64.45
74794;BME280;63320;50.768;6.724;2023-07-16T03:21:15;99807.63;;;18.28;65.35
74794;BME280;63320;50.768;6.724;2023-07-16T03:23:41;99807.91;;;18.35;65.69
74794;BME280;63320;50.768;6.724;2023-07-16T03:26:06;99811.25;;;18.27;65.99
74794;BME280;63320;50.768;6.724;2023-07-16T03:28:33;99815.47;;;18.30;65.52
74794;BME280;63320;50.768;6.724;2023-07-16T03:30:58;99820.00;;;18.39;65.27
74794;BME280;63320;50.768;6.724;2023-07-16T03:33:24;99812.88;;;18.49;64.92
74794;BME280;63320;50.768;6.724;2023-07-16T03:35:49;99821.47;;;18.32;65.30
74794;BME280;63320;50.768;6.724;2023-07-16T03:38:15;99824.28;;;18.30;65.19
74794;BME280;63320;50.768;6.724;2023-07-16T03:40:42;99819.88;;;18.50;64.28
74794;BME280;63320;50.768;6.724;2023-07-16T03:43:08;99825.84;;;18.63;64.16
74794;BME280;63320;50.768;6.724;2023-07-16T03:45:34;99827.97;;;18.39;64.54
74794;BME280;63320;50.768;6.724;2023-07-16T03:48:00;99832.50;;;18.48;64.29
74794;BME280;63320;50.768;6.724;2023-07-16T03:50:25;99829.94;;;18.47;64.28
74794;BME280;63320;50.768;6.724;2023-07-16T03:52:50;99836.16;;;18.57;64.03
74794;BME280;63320;50.768;6.724;2023-07-16T03:55:16;99831.69;;;18.57;63.92
74794;BME280;63320;50.768;6.724;2023-07-16T03:57:42;99835.75;;;18.61;63.47
74794;BME280;63320;50.768;6.724;2023-07-16T04:00:08;99838.88;;;18.67;63.35
74794;BME280;63320;50.768;6.724;2023-07-16T04:02:35;99845.91;;;18.68;63.49
74794;BME280;63320;50.768;6.724;2023-07-16T04:05:00;99849.19;;;18.81;63.08
74794;BME280;63320;50.768;6.724;2023-07-16T04:07:26;99852.38;;;18.75;63.11
74794;BME280;63320;50.768;6.724;2023-07-16T04:09:51;99853.88;;;18.68;62.95
74794;BME280;63320;50.768;6.724;2023-07-16T04:12:16;99866.25;;;18.69;63.30
74794;BME280;63320;50.768;6.724;2023-07-16T04:14:42;99857.41;;;18.68;63.16
74794;BME280;63320;50.768;6.724;2023-07-16T04:17:07;99871.63;;;18.57;63.38
74794;BME280;63320;50.768;6.724;2023-07-16T04:19:34;99873.59;;;18.55;63.60
74794;BME280;63320;50.768;6.724;2023-07-16T04:21:59;99867.31;;;18.66;62.71
74794;BME280;63320;50.768;6.724;2023-07-16T04:24:24;99876.09;;;18.26;63.66
74794;BME280;63320;50.768;6.724;2023-07-16T04:26:50;99870.47;;;18.50;63.45
74794;BME280;63320;50.768;6.724;2023-07-16T04:29:15;99872.34;;;18.59;62.84
74794;BME280;63320;50.768;6.724;2023-07-16T04:31:40;99876.50;;;18.73;62.55
74794;BME280;63320;50.768;6.724;2023-07-16T04:34:06;99880.09;;;18.62;62.71
74794;BME280;63320;50.768;6.724;2023-07-16T04:36:32;99880.19;;;18.61;62.94
74794;BME280;63320;50.768;6.724;2023-07-16T04:38:58;99879.94;;;18.64;62.71
74794;BME280;63320;50.768;6.724;2023-07-16T04:41:23;99888.41;;;18.69;62.17
74794;BME280;63320;50.768;6.724;2023-07-16T04:43:48;99894.75;;;18.57;62.51
74794;BME280;63320;50.768;6.724;2023-07-16T04:46:14;99894.44;;;18.50;62.29
74794;BME280;63320;50.768;6.724;2023-07-16T04:48:39;99894.00;;;18.45;62.62
74794;BME280;63320;50.768;6.724;2023-07-16T04:51:04;99897.88;;;18.41;62.62
74794;BME280;63320;50.768;6.724;2023-07-16T04:53:31;99897.38;;;18.26;62.19
74794;BME280;63320;50.768;6.724;2023-07-16T04:55:56;99913.63;;;18.23;62.60
74794;BME280;63320;50.768;6.724;2023-07-16T04:58:22;99908.28;;;18.44;62.00
74794;BME280;63320;50.768;6.724;2023-07-16T05:00:47;99916.88;;;18.57;61.44
74794;BME280;63320;50.768;6.724;2023-07-16T05:03:12;99914.59;;;18.43;61.43
74794;BME280;63320;50.768;6.724;2023-07-16T05:05:38;99914.31;;;18.46;61.15
74794;BME280;63320;50.768;6.724;2023-07-16T05:08:03;99919.63;;;18.46;60.82
74794;BME280;63320;50.768;6.724;2023-07-16T05:10:30;99921.16;;;18.39;60.93
74794;BME280;63320;50.768;6.724;2023-07-16T05:12:55;99918.66;;;18.47;60.72
74794;BME280;63320;50.768;6.724;2023-07-16T05:15:21;99930.50;;;18.33;60.41
74794;BME280;63320;50.768;6.724;2023-07-16T05:17:47;99925.56;;;18.29;60.22
74794;BME280;63320;50.768;6.724;2023-07-16T05:20:12;99937.31;;;18.05;61.20
74794;BME280;63320;50.768;6.724;2023-07-16T05:22:37;99925.97;;;18.24;60.69
74794;BME280;63320;50.768;6.724;2023-07-16T05:25:03;99933.03;;;18.14;60.39
74794;BME280;63320;50.768;6.724;2023-07-16T05:27:30;99931.50;;;18.42;59.63
74794;BME280;63320;50.768;6.724;2023-07-16T05:29:56;99937.06;;;18.29;59.43
74794;BME280;63320;50.768;6.724;2023-07-16T05:32:21;99936.38;;;18.37;59.17
74794;BME280;63320;50.768;6.724;2023-07-16T05:34:47;99934.84;;;18.34;59.45
74794;BME280;63320;50.768;6.724;2023-07-16T05:37:12;99932.09;;;18.46;58.73
74794;BME280;63320;50.768;6.724;2023-07-16T05:39:37;99949.31;;;18.42;58.40
74794;BME280;63320;50.768;6.724;2023-07-16T05:42:03;99949.44;;;18.40;58.26
74794;BME280;63320;50.768;6.724;2023-07-16T05:44:30;99942.97;;;18.33;58.43
74794;BME280;63320;50.768;6.724;2023-07-16T05:46:56;99972.50;;;18.30;57.83
74794;BME280;63320;50.768;6.724;2023-07-16T05:49:21;99957.44;;;18.40;58.07
74794;BME280;63320;50.768;6.724;2023-07-16T05:51:46;99954.56;;;18.32;57.91
74794;BME280;63320;50.768;6.724;2023-07-16T05:54:12;99940.75;;;18.38;57.37
74794;BME280;63320;50.768;6.724;2023-07-16T05:56:37;99946.00;;;18.49;57.43
74794;BME280;63320;50.768;6.724;2023-07-16T05:59:03;99947.69;;;18.50;56.89
74794;BME280;63320;50.768;6.724;2023-07-16T06:01:29;99954.00;;;18.49;57.13
74794;BME280;63320;50.768;6.724;2023-07-16T06:03:55;99947.69;;;18.50;56.78
74794;BME280;63320;50.768;6.724;2023-07-16T06:06:20;99954.69;;;18.51;56.35
74794;BME280;63320;50.768;6.724;2023-07-16T06:08:45;99965.94;;;18.34;56.64
74794;BME280;63320;50.768;6.724;2023-07-16T06:11:12;99955.88;;;18.17;56.62
74794;BME280;63320;50.768;6.724;2023-07-16T06:13:37;99965.94;;;18.13;56.92
74794;BME280;63320;50.768;6.724;2023-07-16T06:16:03;99980.41;;;18.41;56.66
74794;BME280;63320;50.768;6.724;2023-07-16T06:18:30;99970.81;;;18.50;55.46
74794;BME280;63320;50.768;6.724;2023-07-16T06:20:55;99973.19;;;18.32;55.16
74794;BME280;63320;50.768;6.724;2023-07-16T06:23:20;99967.38;;;18.38;54.98
74794;BME280;63320;50.768;6.724;2023-07-16T06:25:46;99985.56;;;18.33;55.29
74794;BME280;63320;50.768;6.724;2023-07-16T06:28:11;99983.44;;;18.48;54.42
74794;BME280;63320;50.768;6.724;2023-07-16T06:30:37;99984.28;;;18.48;53.91
74794;BME280;63320;50.768;6.724;2023-07-16T06:33:02;99984.44;;;18.56;54.03
74794;BME280;63320;50.768;6.724;2023-07-16T06:35:29;99992.28;;;18.37;53.41
74794;BME280;63320;50.768;6.724;2023-07-16T06:37:54;99991.34;;;18.38;53.61
74794;BME280;63320;50.768;6.724;2023-07-16T06:40:20;99992.03;;;18.61;52.89
74794;BME280;63320;50.768;6.724;2023-07-16T06:42:45;99992.25;;;18.48;52.39
74794;BME280;63320;50.768;6.724;2023-07-16T06:45:10;100002.44;;;18.64;52.12
74794;BME280;63320;50.768;6.724;2023-07-16T06:47:36;99992.88;;;18.61;51.90
74794;BME280;63320;50.768;6.724;2023-07-16T06:50:01;99979.00;;;18.58;51.54
74794;BME280;63320;50.768;6.724;2023-07-16T06:52:28;99998.81;;;18.65;51.74
74794;BME280;63320;50.768;6.724;2023-07-16T06:54:54;99990.75;;;18.55;51.57
74794;BME280;63320;50.768;6.724;2023-07-16T06:57:19;99991.88;;;18.74;52.04
74794;BME280;63320;50.768;6.724;2023-07-16T06:59:44;99993.34;;;18.87;51.59
74794;BME280;63320;50.768;6.724;2023-07-16T07:02:11;99978.91;;;18.90;51.10
74794;BME280;63320;50.768;6.724;2023-07-16T07:04:37;99998.09;;;18.84;51.71
74794;BME280;63320;50.768;6.724;2023-07-16T07:07:02;99986.31;;;18.86;51.68
74794;BME280;63320;50.768;6.724;2023-07-16T07:09:29;99993.09;;;18.91;50.64
74794;BME280;63320;50.768;6.724;2023-07-16T07:11:54;99985.97;;;19.01;50.72
74794;BME280;63320;50.768;6.724;2023-07-16T07:14:20;99992.88;;;19.03;50.61
74794;BME280;63320;50.768;6.724;2023-07-16T07:16:45;99979.84;;;19.10;50.29
74794;BME280;63320;50.768;6.724;2023-07-16T07:19:10;99994.28;;;19.07;50.20
74794;BME280;63320;50.768;6.724;2023-07-16T07:21:36;99992.63;;;19.16;49.39
74794;BME280;63320;50.768;6.724;2023-07-16T07:24:01;99990.25;;;19.13;48.87
74794;BME280;63320;50.768;6.724;2023-07-16T07:26:28;99991.94;;;19.14;48.90
74794;BME280;63320;50.768;6.724;2023-07-16T07:28:53;100012.72;;;19.20;49.05
74794;BME280;63320;50.768;6.724;2023-07-16T07:31:18;99996.50;;;19.33;49.15
74794;BME280;63320;50.768;6.724;2023-07-16T07:33:44;100004.66;;;19.41;48.76
74794;BME280;63320;50.768;6.724;2023-07-16T07:36:09;99989.38;;;19.43;48.43
74794;BME280;63320;50.768;6.724;2023-07-16T07:38:34;99994.97;;;19.40;48.20
74794;BME280;63320;50.768;6.724;2023-07-16T07:41:00;99992.03;;;19.53;47.63
74794;BME280;63320;50.768;6.724;2023-07-16T07:43:26;99993.88;;;19.52;46.93
74794;BME280;63320;50.768;6.724;2023-07-16T07:45:52;100005.66;;;19.50;47.11
74794;BME280;63320;50.768;6.724;2023-07-16T07:48:17;99996.66;;;19.41;47.11
74794;BME280;63320;50.768;6.724;2023-07-16T07:50:42;100003.16;;;19.48;46.23
74794;BME280;63320;50.768;6.724;2023-07-16T07:53:08;99996.84;;;19.59;46.14
74794;BME280;63320;50.768;6.724;2023-07-16T07:55:33;99999.63;;;19.57;45.99
74794;BME280;63320;50.768;6.724;2023-07-16T07:57:59;100005.88;;;19.67;46.33
74794;BME280;63320;50.768;6.724;2023-07-16T08:00:26;100002.06;;;19.60;45.52
74794;BME280;63320;50.768;6.724;2023-07-16T08:02:51;100005.16;;;19.65;45.12
74794;BME280;63320;50.768;6.724;2023-07-16T08:05:17;100012.06;;;19.78;45.33
74794;BME280;63320;50.768;6.724;2023-07-16T08:07:42;100013.72;;;19.59;45.19
74794;BME280;63320;50.768;6.724;2023-07-16T08:10:08;100004.34;;;19.65;44.66
74794;BME280;63320;50.768;6.724;2023-07-16T08:12:33;100007.59;;;19.78;44.60
74794;BME280;63320;50.768;6.724;2023-07-16T08:14:59;100029.47;;;19.72;45.14
74794;BME280;63320;50.768;6.724;2023-07-16T08:17:25;100041.13;;;19.71;45.04
74794;BME280;63320;50.768;6.724;2023-07-16T08:19:51;100011.44;;;19.55;45.48
74794;BME280;63320;50.768;6.724;2023-07-16T08:22:16;100017.00;;;19.82;45.11
74794;BME280;63320;50.768;6.724;2023-07-16T08:24:42;100016.84;;;19.74;44.76
74794;BME280;63320;50.768;6.724;2023-07-16T08:27:07;100013.47;;;19.82;44.89
74794;BME280;63320;50.768;6.724;2023-07-16T08:29:35;100005.91;;;19.97;44.78
74794;BME280;63320;50.768;6.724;2023-07-16T08:32:00;100009.31;;;20.08;45.22
74794;BME280;63320;50.768;6.724;2023-07-16T08:34:27;100025.75;;;20.04;44.37
74794;BME280;63320;50.768;6.724;2023-07-16T08:36:52;100015.34;;;20.01;44.62
74794;BME280;63320;50.768;6.724;2023-07-16T08:39:17;100029.25;;;20.04;43.94
74794;BME280;63320;50.768;6.724;2023-07-16T08:41:43;100016.19;;;20.21;44.42
74794;BME280;63320;50.768;6.724;2023-07-16T08:44:08;100017.31;;;20.08;44.00
74794;BME280;63320;50.768;6.724;2023-07-16T08:46:34;100022.09;;;20.24;44.14
74794;BME280;63320;50.768;6.724;2023-07-16T08:49:00;100023.06;;;20.33;43.99
74794;BME280;63320;50.768;6.724;2023-07-16T08:51:27;100020.13;;;20.36;43.73
74794;BME280;63320;50.768;6.724;2023-07-16T08:53:53;100020.84;;;20.28;43.93
74794;BME280;63320;50.768;6.724;2023-07-16T08:56:19;100019.28;;;20.26;44.23
74794;BME280;63320;50.768;6.724;2023-07-16T08:58:45;100011.97;;;20.28;44.65
74794;BME280;63320;50.768;6.724;2023-07-16T09:01:10;100025.63;;;20.34;45.01
74794;BME280;63320;50.768;6.724;2023-07-16T09:03:36;100019.72;;;20.60;44.54
74794;BME280;63320;50.768;6.724;2023-07-16T09:06:03;100031.91;;;20.43;44.18
74794;BME280;63320;50.768;6.724;2023-07-16T09:08:30;100012.78;;;20.38;44.66
74794;BME280;63320;50.768;6.724;2023-07-16T09:10:56;100035.13;;;20.85;44.35
74794;BME280;63320;50.768;6.724;2023-07-16T09:13:22;100016.06;;;20.51;44.29
74794;BME280;63320;50.768;6.724;2023-07-16T09:15:50;100061.44;;;20.41;44.85
74794;BME280;63320;50.768;6.724;2023-07-16T09:18:20;100020.97;;;20.36;44.40
74794;BME280;63320;50.768;6.724;2023-07-16T09:20:45;100024.34;;;20.38;44.83
74794;BME280;63320;50.768;6.724;2023-07-16T09:23:10;100031.66;;;20.56;44.73
74794;BME280;63320;50.768;6.724;2023-07-16T09:25:37;100026.31;;;20.65;43.86
74794;BME280;63320;50.768;6.724;2023-07-16T09:28:03;100021.53;;;20.69;43.57
74794;BME280;63320;50.768;6.724;2023-07-16T09:30:31;100034.69;;;21.00;43.44
74794;BME280;63320;50.768;6.724;2023-07-16T09:32:56;100028.09;;;20.94;42.73
74794;BME280;63320;50.768;6.724;2023-07-16T09:35:21;100046.81;;;20.75;42.64
74794;BME280;63320;50.768;6.724;2023-07-16T09:37:47;100029.34;;;20.90;43.15
74794;BME280;63320;50.768;6.724;2023-07-16T09:40:12;100031.94;;;21.19;42.56
74794;BME280;63320;50.768;6.724;2023-07-16T09:42:42;100032.09;;;21.08;42.71
74794;BME280;63320;50.768;6.724;2023-07-16T09:45:17;100029.41;;;21.17;42.00
74794;BME280;63320;50.768;6.724;2023-07-16T09:47:42;100026.69;;;21.27;42.58
74794;BME280;63320;50.768;6.724;2023-07-16T09:50:09;100029.84;;;21.03;42.08
74794;BME280;63320;50.768;6.724;2023-07-16T09:52:34;100019.84;;;21.52;41.59
74794;BME280;63320;50.768;6.724;2023-07-16T09:55:01;100015.88;;;21.56;41.31
74794;BME280;63320;50.768;6.724;2023-07-16T09:57:28;100042.03;;;21.25;41.08
74794;BME280;63320;50.768;6.724;2023-07-16T09:59:58;100027.25;;;21.58;40.35
74794;BME280;63320;50.768;6.724;2023-07-16T10:02:25;100041.50;;;21.59;40.16
74794;BME280;63320;50.768;6.724;2023-07-16T10:04:50;100031.72;;;21.67;40.10
74794;BME280;63320;50.768;6.724;2023-07-16T10:07:20;100043.47;;;21.84;40.32
74794;BME280;63320;50.768;6.724;2023-07-16T10:09:50;100049.84;;;21.73;40.17
74794;BME280;63320;50.768;6.724;2023-07-16T10:12:17;100055.91;;;21.48;40.33
74794;BME280;63320;50.768;6.724;2023-07-16T10:14:44;100045.19;;;21.48;40.64
74794;BME280;63320;50.768;6.724;2023-07-16T10:17:15;100047.38;;;21.62;40.28
74794;BME280;63320;50.768;6.724;2023-07-16T10:19:46;100044.41;;;21.28;40.90
74794;BME280;63320;50.768;6.724;2023-07-16T10:22:12;100048.31;;;21.43;40.40
74794;BME280;63320;50.768;6.724;2023-07-16T10:24:38;100043.97;;;21.42;39.62
74794;BME280;63320;50.768;6.724;2023-07-16T10:27:04;100054.56;;;21.89;39.17
74794;BME280;63320;50.768;6.724;2023-07-16T10:29:29;100039.88;;;21.93;39.31
74794;BME280;63320;50.768;6.724;2023-07-16T10:31:54;100062.31;;;22.10;38.95
74794;BME280;63320;50.768;6.724;2023-07-16T10:34:23;100050.19;;;21.88;39.09
74794;BME280;63320;50.768;6.724;2023-07-16T10:36:49;100049.69;;;22.03;39.51
74794;BME280;63320;50.768;6.724;2023-07-16T10:39:15;100057.38;;;22.33;38.29
74794;BME280;63320;50.768;6.724;2023-07-16T10:41:40;100053.91;;;21.78;38.88
74794;BME280;63320;50.768;6.724;2023-07-16T10:44:07;100051.22;;;21.60;38.90
74794;BME280;63320;50.768;6.724;2023-07-16T10:46:33;100058.03;;;21.72;39.54
74794;BME280;63320;50.768;6.724;2023-07-16T10:48:58;100064.31;;;22.44;38.10
74794;BME280;63320;50.768;6.724;2023-07-16T10:51:26;100063.34;;;22.27;38.04
74794;BME280;63320;50.768;6.724;2023-07-16T10:53:55;100062.69;;;21.97;38.22
74794;BME280;63320;50.768;6.724;2023-07-16T10:56:20;100066.72;;;22.11;38.45
74794;BME280;63320;50.768;6.724;2023-07-16T10:58:46;100058.44;;;22.22;38.47
74794;BME280;63320;50.768;6.724;2023-07-16T11:01:11;100066.25;;;22.34;37.71
74794;BME280;63320;50.768;6.724;2023-07-16T11:03:37;100066.00;;;22.09;39.05
74794;BME280;63320;50.768;6.724;2023-07-16T11:06:05;100062.31;;;22.10;38.59
74794;BME280;63320;50.768;6.724;2023-07-16T11:08:32;100054.56;;;22.07;38.93
74794;BME280;63320;50.768;6.724;2023-07-16T11:10:58;100055.84;;;22.13;39.19
74794;BME280;63320;50.768;6.724;2023-07-16T11:13:27;100061.84;;;22.25;38.40
74794;BME280;63320;50.768;6.724;2023-07-16T11:15:52;100053.78;;;22.25;38.50
74794;BME280;63320;50.768;6.724;2023-07-16T11:18:18;100061.97;;;22.41;38.25
74794;BME280;63320;50.768;6.724;2023-07-16T11:20:43;100067.88;;;22.27;37.80
74794;BME280;63320;50.768;6.724;2023-07-16T11:23:10;100064.34;;;21.81;38.48
74794;BME280;63320;50.768;6.724;2023-07-16T11:25:37;100055.16;;;22.46;37.79
74794;BME280;63320;50.768;6.724;2023-07-16T11:28:02;100072.38;;;22.26;37.59
74794;BME280;63320;50.768;6.724;2023-07-16T11:30:28;100073.28;;;22.17;38.16
74794;BME280;63320;50.768;6.724;2023-07-16T11:32:53;100073.69;;;22.40;36.55
74794;BME280;63320;50.768;6.724;2023-07-16T11:35:19;100086.44;;;22.82;35.60
74794;BME280;63320;50.768;6.724;2023-07-16T11:37:46;100077.78;;;23.14;36.07
74794;BME280;63320;50.768;6.724;2023-07-16T11:40:16;100056.63;;;22.85;36.44
74794;BME280;63320;50.768;6.724;2023-07-16T11:42:43;100082.00;;;23.16;36.13
74794;BME280;63320;50.768;6.724;2023-07-16T11:45:15;100083.06;;;22.97;35.39
74794;BME280;63320;50.768;6.724;2023-07-16T11:47:41;100066.78;;;22.55;36.17
74794;BME280;63320;50.768;6.724;2023-07-16T11:50:07;100076.09;;;22.69;36.43
74794;BME280;63320;50.768;6.724;2023-07-16T11:52:33;100072.81;;;22.57;36.71
74794;BME280;63320;50.768;6.724;2023-07-16T11:54:58;100075.59;;;22.47;36.60
74794;BME280;63320;50.768;6.724;2023-07-16T11:57:24;100066.47;;;22.58;36.80
74794;BME280;63320;50.768;6.724;2023-07-16T11:59:50;100071.44;;;22.71;37.17
74794;BME280;63320;50.768;6.724;2023-07-16T12:02:16;100071.56;;;22.87;37.14
74794;BME280;63320;50.768;6.724;2023-07-16T12:04:41;100066.97;;;22.97;36.61
74794;BME280;63320;50.768;6.724;2023-07-16T12:07:07;100087.09;;;23.27;35.96
74794;BME280;63320;50.768;6.724;2023-07-16T12:09:32;100077.66;;;22.89;36.30
74794;BME280;63320;50.768;6.724;2023-07-16T12:11:59;100069.09;;;22.94;36.65
74794;BME280;63320;50.768;6.724;2023-07-16T12:14:24;100077.41;;;23.09;37.08
74794;BME280;63320;50.768;6.724;2023-07-16T12:16:51;100071.59;;;22.69;37.27
74794;BME280;63320;50.768;6.724;2023-07-16T12:19:16;100078.31;;;22.73;37.61
74794;BME280;63320;50.768;6.724;2023-07-16T12:21:42;100081.63;;;22.67;37.37
74794;BME280;63320;50.768;6.724;2023-07-16T12:24:07;100070.34;;;22.82;37.47
74794;BME280;63320;50.768;6.724;2023-07-16T12:26:32;100076.84;;;22.97;36.87
74794;BME280;63320;50.768;6.724;2023-07-16T12:28:58;100090.91;;;23.17;35.65
74794;BME280;63320;50.768;6.724;2023-07-16T12:31:23;100078.88;;;22.95;35.36
74794;BME280;63320;50.768;6.724;2023-07-16T12:33:50;100072.75;;;23.37;34.62
74794;BME280;63320;50.768;6.724;2023-07-16T12:36:15;100073.47;;;23.47;34.76
74794;BME280;63320;50.768;6.724;2023-07-16T12:38:41;100090.22;;;23.41;34.98
74794;BME280;63320;50.768;6.724;2023-07-16T12:41:06;100083.66;;;23.43;35.19
74794;BME280;63320;50.768;6.724;2023-07-16T12:43:33;100079.75;;;23.64;35.05
74794;BME280;63320;50.768;6.724;2023-07-16T12:45:59;100094.31;;;23.61;34.39
74794;BME280;63320;50.768;6.724;2023-07-16T12:48:24;100085.88;;;23.48;35.06